createdAt,value
2019-06-10T00:00:57.264Z,0
2019-06-10T00:01:36.818Z,0
2019-06-10T00:02:17.291Z,0
2019-06-10T00:02:57.814Z,0
2019-06-10T00:03:38.264Z,0
2019-06-10T00:04:18.772Z,0
2019-06-10T00:05:00.112Z,0
2019-06-10T00:10:41.758Z,0
2019-06-10T00:18:24.463Z,0
2019-06-10T00:18:45.677Z,0
2019-06-10T00:24:46.391Z,0
2019-06-10T00:25:35.577Z,0
2019-06-10T00:28:25.732Z,0
2019-06-10T00:29:07.417Z,0
2019-06-10T00:29:47.422Z,0
2019-06-10T00:35:51.317Z,0
2019-06-10T00:36:34.446Z,0
2019-06-10T00:37:27.768Z,0
2019-06-10T00:39:48.134Z,0
2019-06-10T00:40:41.381Z,0
2019-06-10T00:41:31.519Z,0
2019-06-10T00:42:25.492Z,0
2019-06-10T00:43:15.681Z,0
2019-06-10T00:49:12.600Z,0
2019-06-10T00:49:51.412Z,0
2019-06-10T00:50:30.889Z,0
2019-06-10T00:52:31.994Z,0
2019-06-10T00:53:14.447Z,0
2019-06-10T00:53:58.172Z,0
2019-06-10T00:54:35.285Z,0
2019-06-10T00:55:56.328Z,0
2019-06-10T00:56:36.834Z,0
2019-06-10T01:02:03.298Z,0
2019-06-10T01:02:42.685Z,0
2019-06-10T01:03:23.206Z,0
2019-06-10T01:04:05.067Z,0
2019-06-10T01:04:44.110Z,0
2019-06-10T01:05:24.623Z,0
2019-06-10T01:06:06.367Z,0
2019-06-10T01:06:45.526Z,0
2019-06-10T01:07:26.000Z,0
2019-06-10T01:08:06.660Z,0
2019-06-10T01:08:46.980Z,0
2019-06-10T01:16:13.535Z,0
2019-06-10T01:16:52.585Z,0
2019-06-10T01:17:33.016Z,0
2019-06-10T01:18:31.677Z,0
2019-06-10T01:18:53.949Z,0
2019-06-10T01:19:34.512Z,0
2019-06-10T01:20:55.349Z,0
2019-06-10T01:21:35.830Z,0
2019-06-10T01:22:17.299Z,0
2019-06-10T01:22:56.745Z,0
2019-06-10T01:30:26.357Z,0
2019-06-10T01:31:02.480Z,0
2019-06-10T01:31:42.946Z,0
2019-06-10T01:32:23.392Z,0
2019-06-10T01:33:03.911Z,0
2019-06-10T01:33:44.428Z,0
2019-06-10T01:34:24.814Z,0
2019-06-10T01:35:06.481Z,0
2019-06-10T01:35:45.796Z,0
2019-06-10T01:36:26.183Z,0
2019-06-10T01:37:06.822Z,0
2019-06-10T01:44:33.079Z,0
2019-06-10T01:45:14.601Z,0
2019-06-10T01:45:54.006Z,0
2019-06-10T01:46:34.468Z,0
2019-06-10T01:47:16.072Z,0
2019-06-10T01:47:55.382Z,0
2019-06-10T01:48:43.895Z,0
2019-06-10T01:49:16.798Z,0
2019-06-10T01:49:56.785Z,0
2019-06-10T01:57:22.183Z,0
2019-06-10T01:58:02.420Z,0
2019-06-10T01:58:42.937Z,0
2019-06-10T01:59:23.372Z,0
2019-06-10T02:00:09.141Z,0
2019-06-10T02:00:44.286Z,0
2019-06-10T02:01:24.761Z,0
2019-06-10T02:02:05.287Z,0
2019-06-10T02:02:45.769Z,0
2019-06-10T02:03:26.139Z,0
2019-06-10T02:04:06.640Z,0
2019-06-10T02:10:15.553Z,0
2019-06-10T02:10:53.052Z,0
2019-06-10T02:11:33.474Z,0
2019-06-10T02:12:16.263Z,0
2019-06-10T02:12:54.426Z,0
2019-06-10T02:13:34.900Z,0
2019-06-10T02:14:17.785Z,0
2019-06-10T02:14:55.858Z,0
2019-06-10T02:15:36.394Z,0
2019-06-10T02:16:17.730Z,0
2019-06-10T02:23:02.072Z,0
2019-06-10T02:23:42.486Z,0
2019-06-10T02:24:23.537Z,0
2019-06-10T02:25:03.375Z,0
2019-06-10T02:25:43.813Z,0
2019-06-10T02:26:25.796Z,0
2019-06-10T02:27:06.306Z,0
2019-06-10T02:33:16.318Z,0
2019-06-10T02:33:52.767Z,0
2019-06-10T02:34:36.673Z,0
2019-06-10T02:35:23.664Z,0
2019-06-10T02:35:54.060Z,0
2019-06-10T02:36:36.697Z,0
2019-06-10T02:37:17.685Z,0
2019-06-10T02:37:55.400Z,0
2019-06-10T02:38:39.477Z,0
2019-06-10T02:39:22.243Z,0
2019-06-10T02:39:56.837Z,0
2019-06-10T02:47:08.775Z,0
2019-06-10T02:48:04.085Z,0
2019-06-10T02:48:55.940Z,0
2019-06-10T02:53:27.329Z,0
2019-06-10T02:54:04.664Z,0
2019-06-10T02:54:43.800Z,0
2019-06-10T02:56:04.134Z,0
2019-06-10T02:56:44.346Z,0
2019-06-10T02:57:30.315Z,0
2019-06-10T02:58:04.875Z,0
2019-06-10T02:58:45.356Z,0
2019-06-10T02:59:27.269Z,0
2019-06-10T03:06:54.052Z,0
2019-06-10T03:07:35.391Z,0
2019-06-10T03:08:13.074Z,0
2019-06-10T03:08:54.814Z,0
2019-06-10T03:09:35.643Z,0
2019-06-10T03:10:13.886Z,0
2019-06-10T03:10:54.836Z,0
2019-06-10T03:11:37.023Z,0
2019-06-10T03:12:15.640Z,0
2019-06-10T03:20:24.069Z,0
2019-06-10T03:21:02.549Z,0
2019-06-10T03:21:42.829Z,0
2019-06-10T03:22:22.900Z,0
2019-06-10T03:23:03.037Z,0
2019-06-10T03:23:43.581Z,0
2019-06-10T03:24:25.287Z,0
2019-06-10T03:25:04.860Z,0
2019-06-10T03:25:45.276Z,0
2019-06-10T03:26:25.785Z,0
2019-06-10T03:33:54.189Z,0
2019-06-10T03:34:40.416Z,0
2019-06-10T03:35:13.148Z,0
2019-06-10T03:35:52.719Z,0
2019-06-10T03:36:33.044Z,0
2019-06-10T03:37:13.498Z,0
2019-06-10T03:37:53.956Z,0
2019-06-10T03:38:36.958Z,0
2019-06-10T03:39:16.145Z,0
2019-06-10T03:39:55.561Z,0
2019-06-10T03:46:43.051Z,0
2019-06-10T03:47:23.862Z,0
2019-06-10T03:48:03.700Z,0
2019-06-10T03:48:43.506Z,0
2019-06-10T03:49:24.233Z,0
2019-06-10T03:50:04.216Z,0
2019-06-10T03:50:44.715Z,0
2019-06-10T03:51:27.232Z,0
2019-06-10T03:52:05.717Z,0
2019-06-10T03:58:12.550Z,5
2019-06-10T03:58:52.060Z,5
2019-06-10T03:59:32.465Z,5
2019-06-10T04:00:13.851Z,5
2019-06-10T04:00:53.224Z,5
2019-06-10T04:01:33.711Z,5
2019-06-10T04:02:14.246Z,5
2019-06-10T04:02:54.752Z,5
2019-06-10T04:03:35.249Z,5
2019-06-10T04:04:15.739Z,5
2019-06-10T04:10:23.967Z,5
2019-06-10T04:11:02.831Z,5
2019-06-10T04:11:43.328Z,5
2019-06-10T04:12:24.608Z,5
2019-06-10T04:13:04.130Z,5
2019-06-10T04:13:44.670Z,5
2019-06-10T04:14:26.714Z,5
2019-06-10T04:15:05.585Z,10
2019-06-10T04:22:32.912Z,15
2019-06-10T04:23:12.099Z,15
2019-06-10T04:23:52.782Z,15
2019-06-10T04:24:32.734Z,10
2019-06-10T04:25:12.843Z,10
2019-06-10T04:25:53.321Z,10
2019-06-10T04:26:33.804Z,10
2019-06-10T04:27:14.262Z,10
2019-06-10T04:27:54.748Z,10
2019-06-10T04:28:35.214Z,10
2019-06-10T05:07:53.404Z,30
2019-06-10T05:10:52.832Z,45
2019-06-10T05:11:43.018Z,45
2019-06-10T05:15:42.790Z,45
2019-06-10T05:16:23.334Z,40
2019-06-10T05:17:02.175Z,40
2019-06-10T05:20:39.022Z,30
2019-06-10T05:21:03.696Z,25
2019-06-10T05:21:44.180Z,25
2019-06-10T05:22:25.716Z,25
2019-06-10T05:23:05.094Z,25
2019-06-10T05:23:45.578Z,35
2019-06-10T05:24:28.340Z,45
2019-06-10T05:25:06.541Z,55
2019-06-10T05:25:47.034Z,60
2019-06-10T05:26:28.777Z,60
2019-06-10T05:27:07.971Z,60
2019-06-10T05:34:34.587Z,35
2019-06-10T05:35:13.790Z,30
2019-06-10T05:35:54.298Z,30
2019-06-10T05:36:34.903Z,30
2019-06-10T05:37:15.278Z,35
2019-06-10T05:37:55.857Z,45
2019-06-10T05:38:36.395Z,45
2019-06-10T05:39:16.879Z,45
2019-06-10T05:39:58.060Z,55
2019-06-10T05:46:03.538Z,95
2019-06-10T05:46:44.143Z,105
2019-06-10T05:47:26.583Z,120
2019-06-10T05:48:05.646Z,130
2019-06-10T05:48:46.140Z,135
2019-06-10T05:49:27.725Z,135
2019-06-10T05:50:07.135Z,130
2019-06-10T05:51:00.004Z,180
2019-06-10T05:51:29.023Z,140
2019-06-10T05:58:53.405Z,70
2019-06-10T05:59:35.496Z,75
2019-06-10T06:00:15.206Z,90
2019-06-10T06:00:55.432Z,95
2019-06-10T06:01:38.252Z,140
2019-06-10T06:02:16.440Z,130
2019-06-10T06:02:57.014Z,105
2019-06-10T06:03:37.568Z,105
2019-06-10T06:04:18.043Z,105
2019-06-10T06:10:27.207Z,135
2019-06-10T06:11:06.638Z,105
2019-06-10T06:11:47.132Z,95
2019-06-10T06:12:27.653Z,85
2019-06-10T06:19:13.817Z,405
2019-06-10T06:19:54.889Z,605
2019-06-10T06:20:36.031Z,895
2019-06-10T06:21:24.792Z,835
2019-06-10T06:21:57.864Z,695
2019-06-10T06:24:52.203Z,195
2019-06-10T06:29:49.090Z,555
2019-06-10T06:30:30.175Z,515
2019-06-10T06:31:12.475Z,490
2019-06-10T06:34:35.740Z,250
2019-06-10T06:35:13.855Z,360
2019-06-10T06:35:56.780Z,435
2019-06-10T06:36:38.020Z,470
2019-06-10T06:37:17.667Z,445
2019-06-10T06:38:44.966Z,675
2019-06-10T06:39:26.673Z,550
2019-06-10T06:40:06.234Z,220
2019-06-10T06:40:47.300Z,170
2019-06-10T06:45:35.570Z,190
2019-06-10T06:46:29.688Z,75
2019-06-10T06:47:56.325Z,45
2019-06-10T06:48:52.932Z,45
2019-06-10T06:50:13.180Z,55
2019-06-10T06:51:03.817Z,50
2019-06-10T06:51:49.407Z,50
2019-06-10T06:55:03.123Z,65
2019-06-10T06:55:43.808Z,65
2019-06-10T06:56:24.343Z,60
2019-06-10T06:57:05.815Z,60
2019-06-10T06:59:13.325Z,95
2019-06-10T06:59:55.312Z,55
2019-06-10T07:00:52.661Z,50
2019-06-10T07:01:15.806Z,45
2019-06-10T07:01:56.299Z,40
2019-06-10T07:02:37.580Z,40
2019-06-10T07:03:17.820Z,45
2019-06-10T07:16:34.493Z,65
2019-06-10T07:24:35.681Z,135
2019-06-10T07:25:13.533Z,90
2019-06-10T07:25:54.501Z,135
2019-06-10T07:28:01.909Z,160
2019-06-10T07:28:45.632Z,160
2019-06-10T07:29:22.562Z,145
2019-06-10T07:30:11.217Z,115
2019-06-10T07:33:28.905Z,90
2019-06-10T07:34:09.444Z,110
2019-06-10T07:35:38.896Z,130
2019-06-10T07:36:18.843Z,135
2019-06-10T07:36:59.295Z,110
2019-06-10T07:37:41.589Z,135
2019-06-10T07:38:22.983Z,120
2019-06-10T07:39:47.052Z,115
2019-06-10T07:40:28.193Z,110
2019-06-10T07:41:12.493Z,100
2019-06-10T07:41:52.823Z,100
2019-06-10T07:44:37.549Z,75
2019-06-10T07:45:18.708Z,75
2019-06-10T07:47:28.232Z,70
2019-06-10T07:48:12.157Z,70
2019-06-10T07:48:55.621Z,70
2019-06-10T08:05:12.745Z,110
2019-06-10T08:05:52.605Z,110
2019-06-10T08:06:33.442Z,110
2019-06-10T08:09:16.396Z,125
2019-06-10T08:09:58.078Z,110
2019-06-10T08:10:48.159Z,110
2019-06-10T08:11:53.519Z,110
2019-06-10T08:12:37.482Z,100
2019-06-10T08:28:02.956Z,95
2019-06-10T08:28:46.411Z,95
2019-06-10T08:29:27.008Z,95
2019-06-10T08:37:38.138Z,110
2019-06-10T08:38:24.643Z,105
2019-06-10T08:39:18.782Z,100
2019-06-10T08:50:44.729Z,120
2019-06-10T09:47:22.633Z,85
2019-06-10T09:48:03.838Z,90
2019-06-10T09:48:46.841Z,90
2019-06-10T09:51:25.680Z,95
2019-06-10T09:54:56.649Z,90
2019-06-10T09:55:36.571Z,95
2019-06-10T09:56:20.139Z,95
2019-06-10T09:58:47.427Z,80
2019-06-10T09:59:24.404Z,80
2019-06-10T10:03:06.169Z,85
2019-06-10T11:19:29.282Z,75
2019-06-10T11:20:09.796Z,80
2019-06-10T11:20:51.480Z,70
2019-06-10T11:26:58.706Z,65
2019-06-10T11:27:43.120Z,70
2019-06-10T11:28:22.760Z,70
2019-06-10T11:37:58.956Z,35
2019-06-10T11:38:44.266Z,35
2019-06-10T11:39:25.610Z,35
2019-06-10T11:40:06.077Z,35
2019-06-10T11:40:47.130Z,35
2019-06-10T11:43:33.073Z,35
2019-06-10T11:46:25.162Z,35
2019-06-10T11:50:42.802Z,55
2019-06-10T11:51:23.648Z,60
2019-06-10T12:11:34.285Z,90
2019-06-10T12:12:13.592Z,85
2019-06-10T12:12:56.893Z,80
2019-06-10T12:13:38.229Z,70
2019-06-10T12:14:18.785Z,75
2019-06-10T12:15:01.308Z,75
2019-06-10T12:16:13.708Z,70
2019-06-10T12:18:22.866Z,65
2019-06-10T12:19:03.686Z,55
2019-06-10T12:19:43.935Z,60
2019-06-10T12:21:06.956Z,50
2019-06-10T12:21:47.429Z,50
2019-06-10T12:22:28.386Z,50
2019-06-10T12:23:08.753Z,50
2019-06-10T12:23:49.734Z,55
2019-06-10T12:24:32.772Z,60
2019-06-10T12:27:59.633Z,60
2019-06-10T12:28:37.233Z,65
2019-06-10T12:29:17.720Z,65
2019-06-10T12:29:59.915Z,65
2019-06-10T12:30:38.738Z,70
2019-06-10T12:31:22.958Z,75
2019-06-10T12:32:06.595Z,80
2019-06-10T12:36:46.737Z,95
2019-06-10T12:37:27.113Z,90
2019-06-10T12:38:07.740Z,90
2019-06-10T12:38:48.359Z,85
2019-06-10T12:39:29.138Z,85
2019-06-10T12:40:52.210Z,85
2019-06-10T12:43:35.927Z,85
2019-06-10T12:44:16.433Z,85
2019-06-10T12:44:57.579Z,90
2019-06-10T12:45:38.416Z,90
2019-06-10T12:46:19.256Z,90
2019-06-10T12:47:01.945Z,85
2019-06-10T12:47:42.373Z,85
2019-06-10T12:48:22.154Z,85
2019-06-10T12:49:57.557Z,85
2019-06-10T12:51:00.578Z,85
2019-06-10T12:51:38.545Z,85
2019-06-10T12:52:18.929Z,85
2019-06-10T12:53:00.540Z,85
2019-06-10T12:57:56.289Z,80
2019-06-10T12:58:36.754Z,80
2019-06-10T12:59:18.275Z,80
2019-06-10T13:00:42.202Z,75
2019-06-10T13:01:21.295Z,75
2019-06-10T13:02:12.377Z,70
2019-06-10T13:02:42.766Z,70
2019-06-10T13:03:23.620Z,70
2019-06-10T13:04:07.028Z,65
2019-06-10T13:04:44.139Z,65
2019-06-10T13:05:24.722Z,65
2019-06-10T13:09:32.094Z,60
2019-06-10T13:10:12.103Z,60
2019-06-10T13:10:53.211Z,60
2019-06-10T13:11:33.401Z,60
2019-06-10T13:12:18.229Z,60
2019-06-10T13:13:42.041Z,55
2019-06-10T13:14:22.025Z,60
2019-06-10T13:15:04.725Z,60
2019-06-10T13:15:43.308Z,60
2019-06-10T13:16:23.521Z,60
2019-06-10T13:17:05.705Z,60
2019-06-10T13:17:44.641Z,60
2019-06-10T13:22:32.462Z,65
2019-06-10T13:23:20.169Z,65
2019-06-10T13:29:20.038Z,75
2019-06-10T13:30:01.361Z,75
2019-06-10T13:30:42.759Z,75
2019-06-10T13:31:23.458Z,75
2019-06-10T13:32:03.167Z,75
2019-06-10T13:32:43.619Z,70
2019-06-10T13:33:24.086Z,70
2019-06-10T13:34:08.813Z,70
2019-06-10T13:39:10.413Z,65
2019-06-10T13:39:53.062Z,70
2019-06-10T13:40:32.087Z,70
2019-06-10T13:45:16.879Z,70
2019-06-10T13:45:58.091Z,65
2019-06-10T13:46:37.822Z,70
2019-06-10T13:47:18.433Z,65
2019-06-10T13:48:00.370Z,70
2019-06-10T13:48:39.363Z,65
2019-06-10T13:49:22.286Z,65
2019-06-10T13:50:04.629Z,65
2019-06-10T13:50:42.319Z,65
2019-06-10T13:51:21.623Z,65
2019-06-10T13:58:47.218Z,55
2019-06-10T13:59:27.638Z,50
2019-06-10T14:00:10.260Z,55
2019-06-10T14:00:48.620Z,55
2019-06-10T14:01:29.042Z,55
2019-06-10T14:02:11.524Z,55
2019-06-10T14:02:52.191Z,60
2019-06-10T14:03:32.581Z,60
2019-06-10T14:09:41.712Z,60
2019-06-10T14:10:22.613Z,60
2019-06-10T14:11:06.713Z,55
2019-06-10T14:14:27.018Z,45
2019-06-10T14:15:09.384Z,45
2019-06-10T14:17:46.890Z,45
2019-06-10T14:18:27.106Z,45
2019-06-10T14:19:09.278Z,45
2019-06-10T14:21:54.353Z,50
2019-06-10T14:26:44.780Z,45
2019-06-10T14:27:24.563Z,45
2019-06-10T14:28:07.593Z,45
2019-06-10T14:28:46.098Z,45
2019-06-10T14:32:14.300Z,40
2019-06-10T14:32:53.234Z,40
2019-06-10T14:33:34.883Z,40
2019-06-10T14:34:17.984Z,40
2019-06-10T14:34:57.516Z,40
2019-06-10T14:35:46.226Z,40
2019-06-10T14:36:34.255Z,40
2019-06-10T14:42:16.217Z,40
2019-06-10T14:42:56.971Z,40
2019-06-10T14:43:42.345Z,40
2019-06-10T14:44:23.385Z,40
2019-06-10T14:45:53.349Z,40
2019-06-10T14:48:03.020Z,40
2019-06-10T14:50:48.368Z,40
2019-06-10T14:51:32.547Z,40
2019-06-10T14:54:19.749Z,40
2019-06-10T14:55:02.557Z,40
2019-06-10T14:57:55.187Z,45
2019-06-10T14:58:35.996Z,45
2019-06-10T14:59:18.015Z,40
2019-06-10T14:59:56.929Z,40
2019-06-10T15:00:37.449Z,40
2019-06-10T15:01:21.817Z,40
2019-06-10T15:05:23.895Z,40
2019-06-10T15:06:07.020Z,40
2019-06-10T15:09:37.392Z,40
2019-06-10T15:10:18.010Z,40
2019-06-10T15:15:04.799Z,45
2019-06-10T15:15:46.817Z,45
2019-06-10T15:16:27.270Z,45
2019-06-10T15:17:08.443Z,45
2019-06-10T15:17:52.264Z,45
2019-06-10T15:19:21.754Z,45
2019-06-10T15:19:57.383Z,45
2019-06-10T15:22:04.902Z,40
2019-06-10T15:24:23.970Z,40
2019-06-10T15:31:16.025Z,45
2019-06-10T15:32:08.423Z,45
2019-06-10T15:32:35.505Z,45
2019-06-10T15:38:04.210Z,45
2019-06-10T15:38:44.163Z,50
2019-06-10T15:39:24.519Z,45
2019-06-10T15:40:05.069Z,45
2019-06-10T15:40:46.756Z,45
2019-06-10T15:41:27.351Z,45
2019-06-10T15:43:35.243Z,45
2019-06-10T15:44:28.262Z,40
2019-06-10T15:44:56.525Z,40
2019-06-10T15:48:26.302Z,40
2019-06-10T15:53:16.934Z,40
2019-06-10T15:53:54.166Z,40
2019-06-10T15:54:35.074Z,40
2019-06-10T15:55:37.650Z,40
2019-06-10T15:56:12.501Z,35
2019-06-10T15:56:46.821Z,35
2019-06-10T15:57:30.343Z,35
2019-06-10T16:01:25.375Z,40
2019-06-10T16:02:02.536Z,45
2019-06-10T16:02:42.625Z,45
2019-06-10T16:06:07.482Z,45
2019-06-10T16:06:47.965Z,45
2019-06-10T16:07:28.631Z,45
2019-06-10T16:08:09.055Z,45
2019-06-10T16:08:49.505Z,45
2019-06-10T16:15:36.537Z,40
2019-06-10T16:16:17.019Z,45
2019-06-10T16:16:59.258Z,45
2019-06-10T16:17:39.721Z,40
2019-06-10T16:18:25.142Z,45
2019-06-10T16:19:02.240Z,45
2019-06-10T16:24:27.523Z,45
2019-06-10T16:25:06.629Z,45
2019-06-10T16:25:47.687Z,45
2019-06-10T16:26:28.210Z,40
2019-06-10T16:27:12.566Z,40
2019-06-10T17:11:03.268Z,10
2019-06-10T17:11:42.795Z,10
2019-06-10T17:12:24.815Z,10
2019-06-10T17:13:04.329Z,10
2019-06-10T17:15:06.325Z,10
2019-06-10T17:15:46.755Z,15
2019-06-10T17:20:04.460Z,15
2019-06-10T17:20:44.971Z,15
2019-06-10T17:21:28.664Z,15
2019-06-10T17:27:32.386Z,10
2019-06-10T17:28:17.979Z,10
2019-06-10T17:28:52.282Z,10
2019-06-10T17:29:33.418Z,10
2019-06-10T17:30:13.265Z,10
2019-06-10T17:30:53.781Z,10
2019-06-10T17:31:35.089Z,10
2019-06-10T17:37:02.961Z,15
2019-06-10T17:37:43.165Z,15
2019-06-10T17:38:22.602Z,15
2019-06-10T17:39:03.199Z,15
2019-06-10T17:39:43.649Z,15
2019-06-10T17:40:26.052Z,15
2019-06-10T17:41:04.754Z,15
2019-06-10T17:43:52.062Z,15
2019-06-10T17:44:32.466Z,15
2019-06-10T17:48:39.289Z,15
2019-06-10T17:49:25.486Z,15
2019-06-10T17:50:08.041Z,15
2019-06-10T17:50:47.744Z,15
2019-06-10T17:52:49.455Z,10
2019-06-10T17:53:30.869Z,10
2019-06-10T17:54:12.758Z,10
2019-06-10T17:54:52.519Z,10
2019-06-10T17:57:30.335Z,10
2019-06-10T17:58:09.952Z,10
2019-06-10T17:58:56.943Z,10
2019-06-10T18:04:14.540Z,10
2019-06-10T18:04:54.812Z,10
2019-06-10T18:05:35.485Z,10
2019-06-10T18:06:16.277Z,10
2019-06-10T18:06:56.557Z,10
2019-06-10T18:07:38.877Z,10
2019-06-10T18:10:15.767Z,5
2019-06-10T18:10:56.552Z,5
2019-06-10T18:11:38.615Z,5
2019-06-10T18:12:19.174Z,5
2019-06-10T18:14:25.927Z,5
2019-06-10T18:15:04.520Z,5
2019-06-10T18:15:44.972Z,5
2019-06-10T18:16:26.140Z,5
2019-06-10T18:19:09.432Z,5
2019-06-10T18:19:49.917Z,5
2019-06-10T18:20:31.308Z,5
2019-06-10T18:21:12.654Z,5
2019-06-10T18:21:52.232Z,5
2019-06-10T18:22:33.958Z,5
2019-06-10T18:23:13.403Z,5
2019-06-10T18:23:53.084Z,5
2019-06-10T18:24:34.786Z,5
2019-06-10T18:27:21.969Z,5
2019-06-10T18:28:02.648Z,5
2019-06-10T18:28:57.657Z,5
2019-06-10T18:29:22.926Z,5
2019-06-10T18:30:10.402Z,5
2019-06-10T18:32:09.386Z,0
2019-06-10T18:35:02.895Z,0
2019-06-10T18:39:49.319Z,0
2019-06-10T18:40:29.981Z,0
2019-06-10T18:41:13.774Z,0
2019-06-10T18:41:53.852Z,0
2019-06-10T18:48:39.882Z,0
2019-06-10T18:49:18.645Z,0
2019-06-10T18:49:59.653Z,0
2019-06-10T18:53:23.345Z,0
2019-06-10T18:54:02.424Z,0
2019-06-10T18:54:43.599Z,0
2019-06-10T18:55:25.125Z,0
2019-06-10T18:56:05.833Z,0
2019-06-10T19:01:00.497Z,0
2019-06-10T19:01:32.327Z,0
2019-06-10T19:02:12.798Z,0
2019-06-10T19:03:08.356Z,0
2019-06-10T19:05:38.116Z,0
2019-06-10T19:06:17.366Z,0
2019-06-10T19:06:58.019Z,0
2019-06-10T19:08:22.288Z,0
2019-06-10T19:09:04.907Z,0
2019-06-10T19:09:47.934Z,0
2019-06-10T19:10:25.636Z,0
2019-06-10T19:11:06.125Z,0
2019-06-10T19:11:46.560Z,0
2019-06-10T19:16:34.102Z,0
2019-06-10T19:17:12.597Z,0
2019-06-10T19:17:53.625Z,0
2019-06-10T19:18:36.300Z,0
2019-06-10T19:23:22.592Z,0
2019-06-10T19:24:03.215Z,0
2019-06-10T19:24:44.693Z,0
2019-06-10T19:25:24.157Z,0
2019-06-10T19:26:05.442Z,0
2019-06-10T19:26:45.960Z,0
2019-06-10T19:29:39.103Z,0
2019-06-10T19:30:12.081Z,0
2019-06-10T19:30:53.321Z,0
2019-06-10T19:31:36.009Z,0
2019-06-10T19:32:15.300Z,0
2019-06-10T19:32:55.654Z,0
2019-06-10T19:33:37.469Z,0
2019-06-10T19:37:02.435Z,0
2019-06-10T19:37:44.192Z,0
2019-06-10T19:38:25.538Z,0
2019-06-10T19:39:06.286Z,0
2019-06-10T19:41:11.368Z,0
2019-06-10T19:41:52.966Z,0
2019-06-10T19:48:41.564Z,0
2019-06-10T19:49:18.610Z,0
2019-06-10T19:49:59.263Z,0
2019-06-10T19:50:48.017Z,0
2019-06-10T19:51:21.865Z,0
2019-06-10T19:52:02.966Z,0
2019-06-10T19:58:10.395Z,0
2019-06-10T19:58:48.456Z,0
2019-06-10T19:59:28.952Z,0
2019-06-10T20:00:51.680Z,0
2019-06-10T20:01:33.292Z,0
2019-06-10T20:02:11.416Z,0
2019-06-10T20:02:52.398Z,0
2019-06-10T20:03:33.880Z,0
2019-06-10T20:10:57.739Z,0
2019-06-10T20:11:38.396Z,0
2019-06-10T20:12:18.696Z,0
2019-06-10T20:12:59.304Z,0
2019-06-10T20:13:40.934Z,0
2019-06-10T20:14:20.253Z,0
2019-06-10T20:15:02.228Z,0
2019-06-10T20:15:41.974Z,0
2019-06-10T20:16:21.981Z,0
2019-06-10T20:17:03.112Z,0
2019-06-10T20:19:22.258Z,0
2019-06-10T20:20:02.487Z,0
2019-06-10T20:20:43.722Z,0
2019-06-10T20:21:22.680Z,0
2019-06-10T20:22:01.916Z,0
2019-06-10T20:22:43.984Z,0
2019-06-10T20:23:22.918Z,0
2019-06-10T20:24:03.414Z,0
2019-06-10T20:24:46.306Z,0
2019-06-10T20:25:24.371Z,0
2019-06-10T20:30:23.680Z,0
2019-06-10T20:30:52.770Z,0
2019-06-10T20:31:32.939Z,0
2019-06-10T20:32:13.736Z,0
2019-06-10T20:32:56.070Z,0
2019-06-10T20:33:36.898Z,0
2019-06-10T20:41:02.411Z,0
2019-06-10T20:41:44.260Z,0
2019-06-10T20:42:23.059Z,0
2019-06-10T20:43:03.151Z,0
2019-06-10T20:43:44.228Z,0
2019-06-10T20:44:22.881Z,0
2019-06-10T20:45:04.950Z,0
2019-06-10T20:45:45.875Z,0
2019-06-10T20:46:24.258Z,0
2019-06-10T20:47:04.763Z,0
2019-06-10T20:54:32.134Z,0
2019-06-10T20:55:12.556Z,0
2019-06-10T20:55:54.850Z,0
2019-06-10T20:56:33.653Z,0
2019-06-10T20:57:12.182Z,0
2019-06-10T20:58:02.938Z,0
2019-06-10T20:58:33.173Z,0
2019-06-10T20:59:13.348Z,0
2019-06-10T20:59:53.801Z,0
2019-06-10T21:00:34.257Z,0
2019-06-10T21:01:14.825Z,0
2019-06-10T21:08:42.979Z,0
2019-06-10T21:09:22.457Z,0
2019-06-10T21:10:02.729Z,0
2019-06-10T21:10:42.524Z,0
2019-06-10T21:11:23.040Z,0
2019-06-10T21:12:02.383Z,0
2019-06-10T21:12:44.820Z,0
2019-06-10T21:13:23.264Z,0
2019-06-10T21:14:03.717Z,0
2019-06-10T21:14:45.616Z,0
2019-06-10T21:15:24.685Z,0
2019-06-10T21:22:51.251Z,0
2019-06-10T21:23:30.396Z,0
2019-06-10T21:24:12.618Z,0
2019-06-10T21:24:53.477Z,0
2019-06-10T21:25:32.414Z,0
2019-06-10T21:26:12.941Z,0
2019-06-10T21:26:54.567Z,0
2019-06-10T21:27:33.219Z,0
2019-06-10T21:28:13.694Z,0
2019-06-10T21:28:54.969Z,0
2019-06-10T21:29:34.613Z,0
2019-06-10T21:37:00.195Z,0
2019-06-10T21:37:43.873Z,0
2019-06-10T21:38:23.016Z,0
2019-06-10T21:39:02.699Z,0
2019-06-10T21:39:44.699Z,0
2019-06-10T21:40:22.497Z,0
2019-06-10T21:41:03.380Z,0
2019-06-10T21:41:44.955Z,0
2019-06-10T21:42:23.914Z,0
2019-06-10T21:43:04.361Z,0
2019-06-10T21:51:10.136Z,0
2019-06-10T21:51:55.119Z,0
2019-06-10T21:52:32.441Z,0
2019-06-10T21:53:13.008Z,0
2019-06-10T21:53:53.695Z,0
2019-06-10T21:54:32.994Z,0
2019-06-10T21:55:13.215Z,0
2019-06-10T21:55:55.200Z,0
2019-06-10T21:56:33.966Z,0
2019-06-10T21:57:14.424Z,0
2019-06-10T22:05:22.353Z,0
2019-06-10T22:06:00.661Z,0
2019-06-10T22:06:42.272Z,0
2019-06-10T22:07:22.441Z,0
2019-06-10T22:08:03.104Z,0
2019-06-10T22:08:44.060Z,0
2019-06-10T22:09:22.965Z,0
2019-06-10T22:10:03.491Z,0
2019-06-10T22:10:44.181Z,0
2019-06-10T22:11:24.408Z,0
2019-06-10T22:15:53.388Z,0
2019-06-10T22:16:32.893Z,0
2019-06-10T22:17:12.236Z,0
2019-06-10T22:21:56.664Z,0
2019-06-10T22:22:36.245Z,0
2019-06-10T22:23:16.698Z,0
2019-06-10T22:23:57.516Z,0
2019-06-10T22:24:37.976Z,0
2019-06-10T22:25:18.451Z,0
2019-06-10T23:10:48.497Z,0
2019-06-10T23:11:36.240Z,0
2019-06-10T23:12:30.598Z,0
2019-06-10T23:13:22.560Z,0
2019-06-10T23:14:12.347Z,0
2019-06-10T23:16:53.171Z,0
2019-06-10T23:17:31.089Z,0
2019-06-10T23:18:12.649Z,0
2019-06-10T23:20:57.162Z,0
2019-06-10T23:21:35.751Z,0
2019-06-10T23:22:16.367Z,0
2019-06-10T23:22:57.573Z,0
2019-06-10T23:23:37.978Z,0
2019-06-10T23:24:19.642Z,0
2019-06-10T23:28:25.299Z,0
2019-06-10T23:29:05.805Z,0
2019-06-10T23:29:46.245Z,0
2019-06-10T23:30:26.733Z,0
2019-06-10T23:31:07.200Z,0
2019-06-10T23:31:52.658Z,0
2019-06-10T23:32:28.084Z,0
2019-06-10T23:33:08.578Z,0
2019-06-10T23:33:50.116Z,0
2019-06-10T23:34:29.812Z,0
2019-06-10T23:36:20.476Z,0
2019-06-10T23:37:01.659Z,0
2019-06-10T23:37:42.623Z,0
2019-06-10T23:38:23.509Z,0
2019-06-10T23:39:03.934Z,0
2019-06-10T23:39:42.873Z,0
2019-06-10T23:40:23.635Z,0
2019-06-10T23:41:03.969Z,0
2019-06-10T23:49:37.306Z,0
2019-06-10T23:59:54.100Z,0
